Montpelier, IN (47359)

5:18 PM EDT on August 27, 2016 (GMT -0400)
South Huntington County | | Change Station

Elev 853 ft 40.66 °N, 85.51 °W | Updated 9 seconds ago

Haze
Haze
81.9 °F
Feels Like 89 °F
N
6.5
Wind Variable Wind from SE
Gusts 7.4 mph

Today
High -- | Low -- °F
--% Chance of Precip.
Yesterday
High -- | Low -- °F
Precip. -- in
Pressure 30.08 in
Visibility 5.0 miles
Clouds Clear
Heat Index 89 °F
Dew Point 75 °F
Humidity 80%
Rainfall 0.00 in
Snow Depth Not available.
7:03 AM 8:20 PM
Waning Crescent, 21% visible
METAR KMZZ 272055Z AUTO 19005KT 5SM HZ CLR 27/22 A3008 RMK AO2 T02700215
Pressure 30.08 in
Visibility 5.0 miles
Clouds Clear
Heat Index 89 °F
Dew Point 75 °F
Humidity 80%
Rainfall 0.00 in
Snow Depth Not available.
7:03 AM 8:20 PM
Waning Crescent, 21% visible
METAR KMZZ 272055Z AUTO 19005KT 5SM HZ CLR 27/22 A3008 RMK AO2 T02700215

10-Day Weather Forecast

Almanac

Astronomy

Aug. 27, 2016 Rise Set
Actual Time
Civil Twilight
Nautical Twilight
Astronomical Twilight
Moon
Length of Visible Light
Length of Day
Tomorrow will be .
, % of the Moon is Illuminated

Today's Extremes

State Highs State Lows

Community

WunderPhotos

Upload Photos

1,935,446 photos uploaded!

WunderBlog® & News

Nearby

Air Quality

  Air Quality AQ Index Pollutant
Not available.

Snow Depth

Station Depth Elevation

Earthquake Activity

City Distance Mag. Time & Date
Minimum magnitude displayed is 2.5.

Coastal Water Temperatures

Place Temperature

Stations

Nearby Weather Stations

Station Location Temp. Windchill Dew Point Humidity Wind Precip. Elev Updated Type
                   

Watches & Warnings

There are currently no watches in effect.